createdAt,value
2019-04-01T00:03:20.463Z,23.42
2019-04-01T00:08:13.385Z,22.65
2019-04-01T00:13:05.929Z,21.85
2019-04-01T00:17:58.319Z,23.02
2019-04-01T00:22:51.025Z,22.33
2019-04-01T00:27:43.786Z,22.43
2019-04-01T00:32:36.032Z,23.03
2019-04-01T00:37:28.467Z,21.52
2019-04-01T00:42:22.589Z,21.80
2019-04-01T00:47:15.261Z,22.77
2019-04-01T00:52:07.641Z,21.73
2019-04-01T00:57:00.048Z,22.40
2019-04-01T01:01:52.509Z,20.52
2019-04-01T01:06:45.018Z,22.13
2019-04-01T01:11:37.374Z,21.87
2019-04-01T01:16:29.542Z,21.95
2019-04-01T01:21:22.153Z,22.07
2019-04-01T01:26:14.718Z,22.73
2019-04-01T01:31:07.283Z,22.07
2019-04-01T01:35:59.605Z,22.23
2019-04-01T01:40:52.322Z,21.47
2019-04-01T01:45:44.817Z,22.60
2019-04-01T01:50:37.385Z,22.50
2019-04-01T01:55:30.119Z,22.13
2019-04-01T02:00:23.841Z,21.70
2019-04-01T02:05:16.315Z,21.57
2019-04-01T02:10:09.333Z,22.23
2019-04-01T02:15:01.847Z,21.90
2019-04-01T02:19:54.017Z,22.20
2019-04-01T02:24:46.645Z,21.70
2019-04-01T02:29:39.316Z,21.90
2019-04-01T02:34:31.882Z,22.93
2019-04-01T02:39:24.468Z,22.83
2019-04-01T02:44:16.978Z,21.87
2019-04-01T02:49:09.570Z,21.13
2019-04-01T02:54:02.261Z,22.60
2019-04-01T02:58:55.019Z,21.40
2019-04-01T03:03:47.720Z,21.23
2019-04-01T03:08:40.134Z,20.70
2019-04-01T03:13:32.812Z,21.60
2019-04-01T03:18:25.554Z,21.53
2019-04-01T03:23:18.337Z,22.20
2019-04-01T03:28:10.916Z,21.10
2019-04-01T03:33:03.541Z,21.47
2019-04-01T03:37:56.077Z,21.20
2019-04-01T03:42:48.517Z,21.53
2019-04-01T03:47:42.901Z,22.07
2019-04-01T03:52:35.763Z,21.53
2019-04-01T03:57:28.557Z,21.40
2019-04-01T04:02:21.262Z,24.63
2019-04-01T04:07:13.848Z,24.37
2019-04-01T04:12:06.341Z,26.23
2019-04-01T04:16:59.437Z,42.17
2019-04-01T04:21:51.942Z,35.00
2019-04-01T04:26:44.327Z,39.77
2019-04-01T04:31:36.646Z,43.87
2019-04-01T04:36:30.435Z,32.07
2019-04-01T04:41:23.061Z,30.47
2019-04-01T04:46:15.587Z,26.97
2019-04-01T04:51:08.082Z,26.60
2019-04-01T04:56:00.532Z,27.47
2019-04-01T05:00:52.954Z,27.20
2019-04-01T05:05:45.525Z,27.07
2019-04-01T05:10:38.013Z,27.00
2019-04-01T05:15:30.400Z,26.07
2019-04-01T05:20:23.001Z,27.23
2019-04-01T05:25:15.987Z,23.97
2019-04-01T05:30:09.777Z,24.30
2019-04-01T05:35:05.194Z,28.53
2019-04-01T05:39:58.533Z,25.27
2019-04-01T05:44:51.230Z,28.33
2019-04-01T05:49:43.717Z,29.57
2019-04-01T05:54:36.560Z,34.90
2019-04-01T05:59:29.174Z,25.33
2019-04-01T06:04:21.885Z,32.17
2019-04-01T06:09:14.599Z,28.70
2019-04-01T06:14:07.397Z,27.87
2019-04-01T06:19:00.789Z,25.90
2019-04-01T06:23:53.453Z,29.90
2019-04-01T06:28:45.962Z,28.03
2019-04-01T06:33:38.614Z,24.67
2019-04-01T06:38:31.270Z,22.83
2019-04-01T06:43:24.052Z,22.03
2019-04-01T06:48:16.721Z,21.90
2019-04-01T06:53:09.364Z,21.43
2019-04-01T06:58:01.872Z,21.33
2019-04-01T07:02:54.255Z,21.17
2019-04-01T07:07:47.115Z,20.75
2019-04-01T07:12:39.802Z,19.80
2019-04-01T07:17:32.505Z,21.30
2019-04-01T07:22:25.219Z,21.35
2019-04-01T07:27:17.579Z,20.97
2019-04-01T07:32:09.936Z,20.48
2019-04-01T07:37:02.942Z,19.10
2019-04-01T07:41:55.582Z,19.55
2019-04-01T07:46:48.280Z,19.95
2019-04-01T07:51:41.151Z,20.10
2019-04-01T07:56:33.679Z,20.08
2019-04-01T08:01:26.265Z,20.80
2019-04-01T08:06:19.081Z,21.07
2019-04-01T08:11:11.758Z,20.48
2019-04-01T08:16:04.054Z,20.95
2019-04-01T08:20:56.862Z,19.87
2019-04-01T08:25:49.193Z,21.45
2019-04-01T08:30:41.670Z,21.73
2019-04-01T08:35:34.613Z,23.12
2019-04-01T08:40:26.977Z,31.90
2019-04-01T08:45:19.506Z,29.25
2019-04-01T08:50:12.347Z,21.85
2019-04-01T08:55:06.817Z,19.95
2019-04-01T08:59:59.404Z,20.88
2019-04-01T09:04:51.626Z,22.65
2019-04-01T09:09:44.297Z,20.77
2019-04-01T09:14:37.764Z,20.17
2019-04-01T09:19:30.121Z,21.23
2019-04-01T09:24:22.833Z,20.85
2019-04-01T09:29:15.279Z,20.05
2019-04-01T09:34:08.017Z,20.23
2019-04-01T09:39:00.392Z,21.42
2019-04-01T09:43:53.023Z,20.25
2019-04-01T09:48:45.723Z,29.10
2019-04-01T09:53:38.047Z,27.17
2019-04-01T09:58:30.525Z,20.08
2019-04-01T10:03:23.222Z,19.87
2019-04-01T10:08:15.826Z,19.32
2019-04-01T10:13:08.509Z,20.57
2019-04-01T10:18:01.024Z,21.33
2019-04-01T10:22:53.801Z,20.45
2019-04-01T10:27:46.785Z,18.87
2019-04-01T10:32:39.608Z,23.20
2019-04-01T10:37:31.915Z,18.35
2019-04-01T10:42:24.565Z,28.87
2019-04-01T10:47:17.981Z,22.25
2019-04-01T10:52:10.713Z,20.27
2019-04-01T10:57:03.260Z,30.37
2019-04-01T11:01:56.160Z,20.50
2019-04-01T11:06:48.951Z,18.27
2019-04-01T11:11:41.406Z,18.00
2019-04-01T11:16:34.586Z,17.12
2019-04-01T11:21:38.392Z,16.57
2019-04-01T11:26:30.766Z,17.05
2019-04-01T11:31:24.916Z,17.17
2019-04-01T11:36:22.918Z,17.12
2019-04-01T11:41:24.423Z,17.45
2019-04-01T11:46:17.532Z,16.57
2019-04-01T11:51:10.082Z,17.50
2019-04-01T11:56:03.120Z,17.17
2019-04-01T12:00:55.763Z,15.95
2019-04-01T12:05:48.170Z,16.17
2019-04-01T12:10:40.816Z,16.12
2019-04-01T12:15:33.645Z,15.35
2019-04-01T12:20:26.375Z,16.52
2019-04-01T12:25:18.766Z,15.60
2019-04-01T12:30:11.757Z,15.35
2019-04-01T12:35:04.840Z,16.17
2019-04-01T12:39:57.188Z,15.45
2019-04-01T12:44:49.377Z,15.23
2019-04-01T12:49:42.113Z,14.23
2019-04-01T12:54:34.389Z,16.10
2019-04-01T12:59:27.154Z,14.10
2019-04-01T13:04:19.518Z,14.43
2019-04-01T13:09:12.021Z,13.03
2019-04-01T13:14:05.182Z,14.28
2019-04-01T13:18:57.693Z,13.98
2019-04-01T13:23:50.489Z,13.80
2019-04-01T13:28:42.994Z,14.28
2019-04-01T13:33:35.738Z,13.55
2019-04-01T13:38:28.129Z,14.55
2019-04-01T13:43:20.545Z,15.20
2019-04-01T13:48:13.009Z,14.73
2019-04-01T13:53:05.578Z,14.53
2019-04-01T13:57:58.227Z,14.35
2019-04-01T14:02:50.926Z,12.88
2019-04-01T14:07:43.419Z,14.90
2019-04-01T14:12:35.885Z,13.72
2019-04-01T14:17:28.721Z,12.93
2019-04-01T14:22:20.963Z,15.08
2019-04-01T14:27:13.094Z,13.30
2019-04-01T14:32:05.685Z,13.98
2019-04-01T14:36:58.213Z,14.70
2019-04-01T14:41:50.837Z,15.03
2019-04-01T14:46:43.628Z,14.23
2019-04-01T14:51:35.965Z,14.45
2019-04-01T14:56:28.693Z,14.07
2019-04-01T15:01:21.049Z,14.78
2019-04-01T15:06:13.833Z,13.32
2019-04-01T15:11:06.357Z,14.58
2019-04-01T15:15:58.584Z,15.30
2019-04-01T15:20:51.630Z,13.83
2019-04-01T15:25:44.161Z,14.00
2019-04-01T15:30:36.654Z,14.35
2019-04-01T15:35:29.243Z,13.65
2019-04-01T15:40:21.850Z,12.75
2019-04-01T15:45:14.839Z,13.10
2019-04-01T15:50:07.485Z,13.30
2019-04-01T15:55:00.097Z,12.78
2019-04-01T15:59:52.437Z,13.98
2019-04-01T16:04:45.021Z,12.63
2019-04-01T16:09:37.331Z,13.80
2019-04-01T16:14:29.753Z,15.30
2019-04-01T16:19:22.289Z,13.03
2019-04-01T16:24:15.335Z,12.82
2019-04-01T16:29:09.025Z,13.75
2019-04-01T16:34:01.371Z,12.28
2019-04-01T16:38:53.855Z,12.55
2019-04-01T16:43:46.429Z,13.13
2019-04-01T16:48:39.276Z,12.68
2019-04-01T16:53:31.749Z,13.05
2019-04-01T16:58:24.586Z,12.50
2019-04-01T17:03:19.372Z,12.53
2019-04-01T17:08:12.153Z,14.03
2019-04-01T17:13:06.247Z,15.18
2019-04-01T17:17:58.651Z,14.95
2019-04-01T17:22:51.639Z,12.98
2019-04-01T17:27:44.062Z,13.50
2019-04-01T17:32:36.585Z,14.10
2019-04-01T17:37:29.481Z,13.98
2019-04-01T17:42:22.101Z,13.98
2019-04-01T17:47:23.362Z,13.62
2019-04-01T17:52:15.489Z,13.00
2019-04-01T17:57:08.081Z,12.60
2019-04-01T18:02:00.804Z,13.38
2019-04-01T18:06:53.649Z,12.58
2019-04-01T18:11:48.468Z,13.55
2019-04-01T18:16:40.286Z,12.85
2019-04-01T18:21:33.365Z,12.37
2019-04-01T18:26:26.201Z,12.53
2019-04-01T18:31:18.938Z,12.33
2019-04-01T18:36:11.621Z,12.00
2019-04-01T18:41:04.269Z,13.03
2019-04-01T18:45:58.085Z,14.10
2019-04-01T18:50:50.883Z,19.80
2019-04-01T18:55:43.608Z,18.82
2019-04-01T19:00:36.494Z,17.60
2019-04-01T19:05:29.264Z,18.25
2019-04-01T19:10:21.745Z,24.98
2019-04-01T19:15:14.272Z,22.48
2019-04-01T19:20:07.544Z,23.38
2019-04-01T19:24:59.945Z,23.65
2019-04-01T19:29:52.433Z,19.10
2019-04-01T19:34:44.906Z,19.73
2019-04-01T19:39:37.572Z,19.95
2019-04-01T19:44:29.973Z,21.37
2019-04-01T19:49:22.670Z,25.17
2019-04-01T19:54:15.140Z,25.27
2019-04-01T19:59:07.898Z,55.12
2019-04-01T20:04:00.484Z,24.90
2019-04-01T20:08:52.910Z,16.23
2019-04-01T20:13:45.526Z,16.05
2019-04-01T20:18:38.148Z,16.93
2019-04-01T20:23:30.605Z,15.15
2019-04-01T20:28:23.214Z,15.68
2019-04-01T20:33:18.017Z,20.10
2019-04-01T20:38:09.517Z,21.60
2019-04-01T20:43:02.274Z,36.13
2019-04-01T20:47:56.109Z,40.85
2019-04-01T20:52:50.075Z,56.35
2019-04-01T20:57:42.634Z,63.65
2019-04-01T21:02:35.413Z,38.33
2019-04-01T21:07:28.358Z,50.20
2019-04-01T21:12:21.075Z,47.23
2019-04-01T21:17:13.453Z,52.53
2019-04-01T21:22:07.200Z,79.03
2019-04-01T21:27:00.669Z,35.47
2019-04-01T21:31:53.046Z,20.20
2019-04-01T21:36:45.713Z,17.40
2019-04-01T21:41:38.364Z,17.73
2019-04-01T21:46:31.125Z,16.37
2019-04-01T21:51:23.764Z,22.17
2019-04-01T21:56:16.138Z,21.30
2019-04-01T22:01:09.341Z,19.47
2019-04-01T22:06:01.809Z,19.67
2019-04-01T22:10:54.014Z,22.67
2019-04-01T22:15:46.469Z,19.73
2019-04-01T22:20:42.490Z,32.03
2019-04-01T22:25:33.105Z,27.70
2019-04-01T22:30:25.547Z,22.43
2019-04-01T22:35:18.282Z,18.80
2019-04-01T22:40:11.246Z,16.37
2019-04-01T22:45:07.286Z,18.63
2019-04-01T22:49:59.653Z,20.47
2019-04-01T22:54:52.286Z,20.87
2019-04-01T22:59:44.786Z,18.70
2019-04-01T23:04:39.193Z,20.97
2019-04-01T23:09:32.098Z,24.60
2019-04-01T23:14:24.937Z,20.17
2019-04-01T23:19:17.722Z,17.60
2019-04-01T23:24:10.390Z,20.10
2019-04-01T23:29:02.615Z,20.20
2019-04-01T23:33:55.069Z,23.13
2019-04-01T23:38:47.771Z,23.90
2019-04-01T23:43:40.280Z,25.17
2019-04-01T23:48:32.930Z,29.80
2019-04-01T23:53:25.473Z,25.57
2019-04-01T23:58:18.013Z,33.00
